createdAt,value
2023-04-07T00:01:25.679Z,1.20
2023-04-07T00:03:52.756Z,1.20
2023-04-07T00:06:19.798Z,1.20
2023-04-07T00:08:46.578Z,1.10
2023-04-07T00:11:13.479Z,1.10
2023-04-07T00:13:40.490Z,1.00
2023-04-07T00:16:07.544Z,1.00
2023-04-07T00:18:34.442Z,1.00
2023-04-07T00:21:01.195Z,1.00
2023-04-07T00:23:28.026Z,0.90
2023-04-07T00:25:54.787Z,0.90
2023-04-07T00:28:21.496Z,0.90
2023-04-07T00:30:48.336Z,0.90
2023-04-07T00:33:15.365Z,0.80
2023-04-07T00:35:42.231Z,0.80
2023-04-07T00:38:09.064Z,0.80
2023-04-07T00:40:36.520Z,0.70
2023-04-07T00:43:03.329Z,0.70
2023-04-07T00:45:30.355Z,0.70
2023-04-07T00:47:58.819Z,0.70
2023-04-07T00:50:25.886Z,0.60
2023-04-07T00:52:54.643Z,0.60
2023-04-07T00:55:21.571Z,0.60
2023-04-07T00:57:48.512Z,0.60
2023-04-07T01:00:15.681Z,0.60
2023-04-07T01:02:48.380Z,0.60
2023-04-07T01:05:30.942Z,0.50
2023-04-07T01:08:20.867Z,0.50
2023-04-07T01:10:47.553Z,0.40
2023-04-07T01:13:36.445Z,0.40
2023-04-07T01:16:09.762Z,0.30
2023-04-07T01:18:38.588Z,0.30
2023-04-07T01:21:14.003Z,0.20
2023-04-07T01:23:52.475Z,0.20
2023-04-07T01:26:26.638Z,0.10
2023-04-07T01:29:18.464Z,0.10
2023-04-07T01:31:47.831Z,0.00
2023-04-07T01:34:15.494Z,0.00
2023-04-07T01:36:43.989Z,0.00
2023-04-07T01:39:12.212Z,0.00
2023-04-07T01:41:39.604Z,0.00
2023-04-07T01:44:08.096Z,0.00
2023-04-07T01:46:35.014Z,0.00
2023-04-07T01:49:02.891Z,0.00
2023-04-07T01:51:33.413Z,-0.10
2023-04-07T01:54:02.708Z,-0.10
2023-04-07T01:56:29.654Z,-0.10
2023-04-07T01:58:56.417Z,-0.10
2023-04-07T02:01:23.236Z,-0.10
2023-04-07T02:04:01.980Z,-0.10
2023-04-07T02:06:34.093Z,-0.20
2023-04-07T02:09:07.200Z,-0.20
2023-04-07T02:11:36.036Z,-0.20
2023-04-07T02:14:06.406Z,-0.20
2023-04-07T02:16:33.878Z,-0.20
2023-04-07T02:19:02.475Z,-0.20
2023-04-07T02:21:30.576Z,-0.30
2023-04-07T02:24:00.650Z,-0.30
2023-04-07T02:26:27.387Z,-0.30
2023-04-07T02:28:54.140Z,-0.30
2023-04-07T02:31:21.004Z,-0.30
2023-04-07T02:33:47.798Z,-0.40
2023-04-07T02:36:14.555Z,-0.40
2023-04-07T02:38:41.527Z,-0.40
2023-04-07T02:41:08.384Z,-0.40
2023-04-07T02:43:35.236Z,-0.40
2023-04-07T02:46:02.120Z,-0.50
2023-04-07T02:48:28.939Z,-0.50
2023-04-07T02:50:55.978Z,-0.50
2023-04-07T02:53:22.847Z,-0.50
2023-04-07T02:55:49.574Z,-0.50
2023-04-07T02:58:16.440Z,-0.60
2023-04-07T03:00:43.225Z,-0.60
2023-04-07T03:03:10.221Z,-0.70
2023-04-07T03:05:37.123Z,-0.70
2023-04-07T03:08:03.963Z,-0.70
2023-04-07T03:10:31.046Z,-0.80
2023-04-07T03:12:58.349Z,-0.80
2023-04-07T03:15:25.417Z,-0.80
2023-04-07T03:17:52.364Z,-0.90
2023-04-07T03:20:19.179Z,-0.90
2023-04-07T03:22:47.331Z,-0.90
2023-04-07T03:25:14.148Z,-0.90
2023-04-07T03:27:40.878Z,-1.00
2023-04-07T03:30:08.638Z,-0.90
2023-04-07T03:32:35.636Z,-1.00
2023-04-07T03:35:02.460Z,-1.00
2023-04-07T03:37:29.219Z,-1.00
2023-04-07T03:39:55.977Z,-1.00
2023-04-07T03:42:22.904Z,-1.00
2023-04-07T03:44:49.703Z,-1.00
2023-04-07T03:47:16.505Z,-1.00
2023-04-07T03:49:43.293Z,-1.00
2023-04-07T03:52:10.150Z,-1.10
2023-04-07T03:54:37.156Z,-1.10
2023-04-07T03:57:04.199Z,-1.10
2023-04-07T03:59:31.054Z,-1.10
2023-04-07T04:01:57.965Z,-1.10
2023-04-07T04:04:24.918Z,-1.10
2023-04-07T04:06:51.807Z,-1.20
2023-04-07T04:09:18.950Z,-1.20
2023-04-07T04:11:45.759Z,-1.20
2023-04-07T04:14:12.575Z,-1.20
2023-04-07T04:16:39.340Z,-1.20
2023-04-07T04:19:06.221Z,-1.20
2023-04-07T04:21:32.947Z,-1.20
2023-04-07T04:23:59.674Z,-1.20
2023-04-07T04:26:26.494Z,-1.10
2023-04-07T04:28:53.246Z,-1.10
2023-04-07T04:31:20.106Z,-1.00
2023-04-07T04:33:46.990Z,-1.00
2023-04-07T04:36:13.837Z,-0.90
2023-04-07T04:38:40.686Z,-0.90
2023-04-07T04:41:07.473Z,-0.80
2023-04-07T04:43:34.234Z,-0.80
2023-04-07T04:46:01.360Z,-0.70
2023-04-07T04:48:28.298Z,-0.70
2023-04-07T04:50:55.244Z,-0.60
2023-04-07T04:53:22.179Z,-0.60
2023-04-07T04:55:52.229Z,-0.60
2023-04-07T04:58:20.550Z,-0.50
2023-04-07T05:00:47.473Z,-0.50
2023-04-07T05:03:14.757Z,-0.40
2023-04-07T05:05:41.802Z,-0.40
2023-04-07T05:08:11.256Z,-0.30
2023-04-07T05:10:41.171Z,-0.30
2023-04-07T05:13:07.983Z,-0.30
2023-04-07T05:15:34.825Z,-0.20
2023-04-07T05:18:01.683Z,-0.20
2023-04-07T05:20:28.459Z,-0.10
2023-04-07T05:22:55.244Z,-0.10
2023-04-07T05:25:22.029Z,-0.10
2023-04-07T05:27:48.836Z,-0.10
2023-04-07T05:30:16.086Z,0.00
2023-04-07T05:32:42.919Z,0.00
2023-04-07T05:35:10.415Z,0.00
2023-04-07T05:37:37.281Z,0.00
2023-04-07T05:40:04.365Z,0.00
2023-04-07T05:42:31.295Z,0.00
2023-04-07T05:44:58.045Z,0.00
2023-04-07T05:47:24.896Z,0.00
2023-04-07T05:49:51.726Z,0.10
2023-04-07T05:52:18.514Z,0.10
2023-04-07T05:54:45.334Z,0.10
2023-04-07T05:57:12.166Z,0.20
2023-04-07T05:59:39.048Z,0.20
2023-04-07T06:02:06.001Z,0.30
2023-04-07T06:04:34.049Z,0.30
2023-04-07T06:07:01.451Z,0.40
2023-04-07T06:09:28.261Z,0.50
2023-04-07T06:11:55.044Z,0.60
2023-04-07T06:14:21.812Z,0.70
2023-04-07T06:16:48.686Z,0.90
2023-04-07T06:19:15.699Z,1.00
2023-04-07T06:21:42.526Z,1.10
2023-04-07T06:24:09.410Z,1.30
2023-04-07T06:26:36.287Z,1.50
2023-04-07T06:29:03.119Z,1.70
2023-04-07T06:31:29.942Z,1.90
2023-04-07T06:33:56.787Z,2.10
2023-04-07T06:36:23.752Z,2.40
2023-04-07T06:38:51.159Z,2.50
2023-04-07T06:41:18.051Z,2.70
2023-04-07T06:43:50.042Z,2.90
2023-04-07T06:46:17.680Z,3.00
2023-04-07T06:48:44.595Z,3.20
2023-04-07T06:51:11.623Z,3.40
2023-04-07T06:53:38.433Z,3.50
2023-04-07T06:56:07.286Z,3.70
2023-04-07T06:58:35.383Z,3.90
2023-04-07T07:01:03.873Z,4.10
2023-04-07T07:03:31.792Z,4.20
2023-04-07T07:05:59.802Z,4.20
2023-04-07T07:08:28.106Z,4.30
2023-04-07T07:10:55.481Z,4.40
2023-04-07T07:13:24.747Z,4.40
2023-04-07T07:15:52.107Z,4.50
2023-04-07T07:18:19.342Z,4.60
2023-04-07T07:20:46.521Z,4.60
2023-04-07T07:23:13.378Z,4.80
2023-04-07T07:25:40.462Z,4.90
2023-04-07T07:28:07.291Z,5.00
2023-04-07T07:30:34.034Z,5.10
2023-04-07T07:33:01.018Z,5.30
2023-04-07T07:35:27.904Z,5.60
2023-04-07T07:37:54.692Z,5.80
2023-04-07T07:40:21.473Z,5.90
2023-04-07T07:42:48.342Z,6.10
2023-04-07T07:45:15.977Z,6.50
2023-04-07T07:47:42.765Z,6.60
2023-04-07T07:50:09.769Z,7.00
2023-04-07T07:52:36.861Z,7.40
2023-04-07T07:55:04.082Z,7.60
2023-04-07T07:57:33.850Z,7.70
2023-04-07T08:00:00.706Z,7.90
2023-04-07T08:02:31.301Z,8.30
2023-04-07T08:04:58.469Z,8.60
2023-04-07T08:07:25.557Z,8.70
2023-04-07T08:09:52.348Z,9.10
2023-04-07T08:12:19.234Z,9.40
2023-04-07T08:14:46.219Z,10.10
2023-04-07T08:17:12.987Z,10.90
2023-04-07T08:19:39.805Z,11.10
2023-04-07T08:22:06.789Z,11.00
2023-04-07T08:24:33.548Z,11.30
2023-04-07T08:27:01.489Z,11.20
2023-04-07T08:29:29.530Z,10.80
2023-04-07T08:31:57.464Z,10.50
2023-04-07T08:34:24.342Z,10.20
2023-04-07T08:36:51.479Z,10.00
2023-04-07T08:39:18.306Z,9.70
2023-04-07T08:41:45.296Z,9.40
2023-04-07T08:44:15.044Z,9.30
2023-04-07T08:46:42.967Z,9.20
2023-04-07T08:49:13.722Z,8.70
2023-04-07T08:51:49.376Z,8.50
2023-04-07T08:54:18.804Z,8.50
2023-04-07T08:56:45.836Z,8.60
2023-04-07T08:59:14.541Z,8.70
2023-04-07T09:01:41.644Z,8.90
2023-04-07T09:04:10.357Z,8.70
2023-04-07T09:06:37.988Z,8.90
2023-04-07T09:09:07.835Z,9.00
2023-04-07T09:11:40.661Z,9.20
2023-04-07T09:14:07.797Z,9.40
2023-04-07T09:16:35.528Z,9.70
2023-04-07T09:19:02.498Z,9.70
2023-04-07T09:21:48.612Z,9.90
2023-04-07T09:24:24.084Z,10.10
2023-04-07T09:26:51.305Z,10.10
2023-04-07T09:29:21.636Z,10.00
2023-04-07T09:31:52.079Z,9.60
2023-04-07T09:34:38.489Z,9.50
2023-04-07T09:37:09.637Z,9.40
2023-04-07T09:39:53.850Z,9.30
2023-04-07T09:42:21.600Z,9.20
2023-04-07T09:44:48.392Z,9.00
2023-04-07T09:47:15.964Z,8.90
2023-04-07T09:49:53.998Z,8.60
2023-04-07T09:52:43.873Z,8.50
2023-04-07T09:55:24.339Z,8.40
2023-04-07T09:57:52.019Z,8.30
2023-04-07T10:00:19.422Z,8.20
2023-04-07T10:02:46.836Z,8.10
2023-04-07T10:05:14.107Z,8.10
2023-04-07T10:07:42.580Z,8.00
2023-04-07T10:10:10.379Z,7.90
2023-04-07T10:12:41.741Z,7.90
2023-04-07T10:15:11.261Z,8.00
2023-04-07T10:17:40.208Z,7.80
2023-04-07T10:20:09.975Z,7.70
2023-04-07T10:22:38.664Z,7.50
2023-04-07T10:25:11.646Z,7.40
2023-04-07T10:27:59.592Z,7.40
2023-04-07T10:30:31.606Z,7.40
2023-04-07T10:32:59.089Z,7.20
2023-04-07T10:35:26.251Z,7.00
2023-04-07T10:38:08.360Z,6.90
2023-04-07T10:40:36.364Z,6.60
2023-04-07T10:43:03.894Z,6.40
2023-04-07T10:45:46.559Z,6.40
2023-04-07T10:48:15.150Z,6.30
2023-04-07T10:50:42.504Z,6.20
2023-04-07T10:53:10.046Z,6.10
2023-04-07T10:55:40.833Z,6.10
2023-04-07T10:58:26.678Z,6.10
2023-04-07T11:01:14.476Z,5.90
2023-04-07T11:03:52.080Z,5.90
2023-04-07T11:06:18.946Z,5.90
2023-04-07T11:08:48.982Z,5.90
2023-04-07T11:11:37.439Z,5.90
2023-04-07T11:14:04.622Z,5.80
2023-04-07T11:16:58.294Z,5.80
2023-04-07T11:19:25.534Z,5.70
2023-04-07T11:22:28.596Z,5.60
2023-04-07T11:24:56.488Z,5.50
2023-04-07T11:27:23.621Z,5.60
2023-04-07T11:29:50.492Z,5.60
2023-04-07T11:32:26.151Z,5.50
2023-04-07T11:34:53.174Z,5.50
2023-04-07T11:37:25.056Z,5.60
2023-04-07T11:39:53.827Z,5.50
2023-04-07T11:42:33.703Z,5.40
2023-04-07T11:45:01.136Z,5.40
2023-04-07T11:47:39.135Z,5.50
2023-04-07T11:50:07.575Z,5.50
2023-04-07T11:52:48.650Z,5.60
2023-04-07T11:55:22.420Z,5.50
2023-04-07T11:57:51.279Z,5.60
2023-04-07T12:00:21.597Z,5.60
2023-04-07T12:02:48.905Z,5.60
2023-04-07T12:05:16.100Z,5.70
2023-04-07T12:07:53.628Z,5.60
2023-04-07T12:10:27.711Z,5.60
2023-04-07T12:12:54.477Z,5.60
2023-04-07T12:15:21.636Z,5.60
2023-04-07T12:17:49.536Z,5.50
2023-04-07T12:20:16.771Z,5.50
2023-04-07T12:22:43.676Z,5.50
2023-04-07T12:25:23.006Z,5.40
2023-04-07T12:27:49.825Z,5.30
2023-04-07T12:30:16.928Z,5.40
2023-04-07T12:32:43.687Z,5.40
2023-04-07T12:35:10.638Z,5.40
2023-04-07T12:37:37.587Z,5.40
2023-04-07T12:40:04.928Z,5.30
2023-04-07T12:42:31.690Z,5.20
2023-04-07T12:44:58.452Z,5.20
2023-04-07T12:47:25.371Z,5.10
2023-04-07T12:49:52.151Z,5.10
2023-04-07T12:52:18.952Z,5.10
2023-04-07T12:54:45.764Z,5.20
2023-04-07T12:57:12.659Z,5.20
2023-04-07T12:59:39.422Z,5.20
2023-04-07T13:02:06.886Z,5.20
2023-04-07T13:04:35.161Z,5.30
2023-04-07T13:07:03.116Z,5.30
2023-04-07T13:09:30.000Z,5.40
2023-04-07T13:11:57.694Z,5.40
2023-04-07T13:14:24.516Z,5.40
2023-04-07T13:16:51.329Z,5.40
2023-04-07T13:19:18.270Z,5.30
2023-04-07T13:21:47.317Z,5.30
2023-04-07T13:24:15.451Z,5.30
2023-04-07T13:26:42.357Z,5.20
2023-04-07T13:29:09.170Z,5.20
2023-04-07T13:31:36.269Z,5.00
2023-04-07T13:34:03.071Z,5.10
2023-04-07T13:36:29.997Z,5.10
2023-04-07T13:38:58.836Z,5.00
2023-04-07T13:41:26.731Z,5.00
2023-04-07T13:43:53.615Z,4.90
2023-04-07T13:46:28.514Z,4.90
2023-04-07T13:48:56.520Z,4.90
2023-04-07T13:51:25.074Z,4.90
2023-04-07T13:53:52.433Z,4.90
2023-04-07T13:56:19.382Z,4.90
2023-04-07T13:58:46.233Z,4.90
2023-04-07T14:01:13.068Z,4.90
2023-04-07T14:03:40.046Z,4.90
2023-04-07T14:06:06.859Z,4.90
2023-04-07T14:08:33.962Z,4.90
2023-04-07T14:11:01.070Z,4.90
2023-04-07T14:13:30.336Z,4.90
2023-04-07T14:15:57.660Z,4.80
2023-04-07T14:18:24.728Z,4.80
2023-04-07T14:20:51.564Z,4.90
2023-04-07T14:23:30.053Z,4.80
2023-04-07T14:26:03.533Z,4.80
2023-04-07T14:28:30.329Z,4.70
2023-04-07T14:30:57.154Z,4.80
2023-04-07T14:33:24.723Z,4.80
2023-04-07T14:35:51.631Z,4.80
2023-04-07T14:38:18.462Z,4.80
2023-04-07T14:40:45.304Z,4.80
2023-04-07T14:43:12.278Z,4.80
2023-04-07T14:45:39.608Z,4.80
2023-04-07T14:48:06.772Z,4.70
2023-04-07T14:50:33.892Z,4.70
2023-04-07T14:53:01.914Z,4.70
2023-04-07T14:55:29.066Z,4.60
2023-04-07T14:57:55.985Z,4.60
2023-04-07T15:00:22.882Z,4.60
2023-04-07T15:02:49.872Z,4.60
2023-04-07T15:05:16.980Z,4.60
2023-04-07T15:07:45.853Z,4.50
2023-04-07T15:10:12.739Z,4.60
2023-04-07T15:12:39.491Z,4.60
2023-04-07T15:15:07.012Z,4.60
2023-04-07T15:17:42.890Z,4.60
2023-04-07T15:20:12.784Z,4.60
2023-04-07T15:22:39.725Z,4.60
2023-04-07T15:25:06.679Z,4.60
2023-04-07T15:27:33.452Z,4.60
2023-04-07T15:30:00.606Z,4.60
2023-04-07T15:32:27.563Z,4.60
2023-04-07T15:34:54.326Z,4.60
2023-04-07T15:37:21.116Z,4.60
2023-04-07T15:39:48.582Z,4.60
2023-04-07T15:42:15.454Z,4.60
2023-04-07T15:44:42.209Z,4.60
2023-04-07T15:47:09.320Z,4.60
2023-04-07T15:49:38.819Z,4.60
2023-04-07T15:52:06.231Z,4.60
2023-04-07T15:54:33.168Z,4.70
2023-04-07T15:56:59.959Z,4.70
2023-04-07T15:59:29.381Z,4.80
2023-04-07T16:01:56.440Z,4.70
2023-04-07T16:04:23.444Z,4.70
2023-04-07T16:06:50.587Z,4.80
2023-04-07T16:09:17.396Z,4.80
2023-04-07T16:11:44.174Z,4.80
2023-04-07T16:14:11.026Z,4.80
2023-04-07T16:16:40.837Z,4.80
2023-04-07T16:19:08.164Z,4.80
2023-04-07T16:21:35.172Z,4.70
2023-04-07T16:24:02.012Z,4.70
2023-04-07T16:26:28.855Z,4.70
2023-04-07T16:28:55.641Z,4.70
2023-04-07T16:31:22.427Z,4.60
2023-04-07T16:33:51.501Z,4.60
2023-04-07T16:36:18.477Z,4.70
2023-04-07T16:38:45.464Z,4.70
2023-04-07T16:41:12.256Z,4.60
2023-04-07T16:43:39.049Z,4.60
2023-04-07T16:46:06.227Z,4.60
2023-04-07T16:48:33.154Z,4.60
2023-04-07T16:51:00.196Z,4.60
2023-04-07T16:53:26.929Z,4.60
2023-04-07T16:55:53.804Z,4.60
2023-04-07T16:58:20.672Z,4.60
2023-04-07T17:00:47.459Z,4.60
2023-04-07T17:03:15.679Z,4.60
2023-04-07T17:05:44.589Z,4.50
2023-04-07T17:08:11.711Z,4.50
2023-04-07T17:10:38.543Z,4.50
2023-04-07T17:13:05.410Z,4.50
2023-04-07T17:15:36.371Z,4.40
2023-04-07T17:18:03.320Z,4.40
2023-04-07T17:20:30.111Z,4.40
2023-04-07T17:22:56.834Z,4.40
2023-04-07T17:25:23.768Z,4.40
2023-04-07T17:27:50.817Z,4.30
2023-04-07T17:30:18.212Z,4.30
2023-04-07T17:32:45.044Z,4.30
2023-04-07T17:35:11.812Z,4.30
2023-04-07T17:37:38.529Z,4.30
2023-04-07T17:40:06.083Z,4.30
2023-04-07T17:42:33.041Z,4.30
2023-04-07T17:44:59.943Z,4.20
2023-04-07T17:47:26.750Z,4.30
2023-04-07T17:49:53.574Z,4.20
2023-04-07T17:52:20.524Z,4.20
2023-04-07T17:54:47.697Z,4.20
2023-04-07T17:57:15.777Z,4.20
2023-04-07T17:59:42.743Z,4.20
2023-04-07T18:02:10.375Z,4.20
2023-04-07T18:04:38.046Z,4.20
2023-04-07T18:07:05.021Z,4.10
2023-04-07T18:09:32.592Z,4.20
2023-04-07T18:12:01.443Z,4.20
2023-04-07T18:14:28.576Z,4.10
2023-04-07T18:16:56.159Z,4.10
2023-04-07T18:19:23.128Z,4.10
2023-04-07T18:21:52.917Z,4.10
2023-04-07T18:24:20.967Z,4.10
2023-04-07T18:26:48.050Z,4.10
2023-04-07T18:29:15.043Z,4.10
2023-04-07T18:31:44.777Z,4.10
2023-04-07T18:34:13.715Z,4.10
2023-04-07T18:36:41.098Z,4.10
2023-04-07T18:39:07.986Z,4.10
2023-04-07T18:41:35.240Z,4.10
2023-04-07T18:44:02.085Z,4.10
2023-04-07T18:46:28.977Z,4.10
2023-04-07T18:48:56.061Z,4.10
2023-04-07T18:51:23.009Z,4.10
2023-04-07T18:53:49.983Z,4.10
2023-04-07T18:56:16.956Z,4.20
2023-04-07T18:58:45.865Z,4.10
2023-04-07T19:01:15.710Z,4.20
2023-04-07T19:03:42.688Z,4.20
2023-04-07T19:06:09.751Z,4.20
2023-04-07T19:08:36.841Z,4.20
2023-04-07T19:11:04.788Z,4.20
2023-04-07T19:13:31.610Z,4.10
2023-04-07T19:15:58.600Z,4.20
2023-04-07T19:18:26.623Z,4.20
2023-04-07T19:20:53.434Z,4.20
2023-04-07T19:23:20.550Z,4.20
2023-04-07T19:25:47.508Z,4.20
2023-04-07T19:28:14.446Z,4.20
2023-04-07T19:30:42.398Z,4.20
2023-04-07T19:33:09.332Z,4.20
2023-04-07T19:35:38.898Z,4.20
2023-04-07T19:38:06.891Z,4.20
2023-04-07T19:40:33.718Z,4.20
2023-04-07T19:43:00.644Z,4.20
2023-04-07T19:45:27.705Z,4.20
2023-04-07T19:47:54.710Z,4.20
2023-04-07T19:50:21.738Z,4.20
2023-04-07T19:52:50.281Z,4.20
2023-04-07T19:55:17.102Z,4.20
2023-04-07T19:57:43.902Z,4.20
2023-04-07T20:00:11.644Z,4.20
2023-04-07T20:02:38.533Z,4.20
2023-04-07T20:05:05.879Z,4.20
2023-04-07T20:07:33.532Z,4.20
2023-04-07T20:10:01.096Z,4.30
2023-04-07T20:12:27.977Z,4.30
2023-04-07T20:14:54.829Z,4.30
2023-04-07T20:17:21.681Z,4.30
2023-04-07T20:19:48.528Z,4.30
2023-04-07T20:22:15.530Z,4.30
2023-04-07T20:24:42.292Z,4.30
2023-04-07T20:27:09.014Z,4.30
2023-04-07T20:29:35.830Z,4.30
2023-04-07T20:32:02.904Z,4.30
2023-04-07T20:34:29.623Z,4.30
2023-04-07T20:36:56.499Z,4.40
2023-04-07T20:39:23.264Z,4.30
2023-04-07T20:41:50.669Z,4.30
2023-04-07T20:44:18.326Z,4.40
2023-04-07T20:46:46.763Z,4.30
2023-04-07T20:49:13.569Z,4.40
2023-04-07T20:51:40.423Z,4.40
2023-04-07T20:54:07.780Z,4.40
2023-04-07T20:56:34.794Z,4.40
2023-04-07T20:59:01.793Z,4.40
2023-04-07T21:01:28.724Z,4.30
2023-04-07T21:03:55.674Z,4.30
2023-04-07T21:06:22.520Z,4.30
2023-04-07T21:08:49.553Z,4.30
2023-04-07T21:11:16.584Z,4.30
2023-04-07T21:13:43.316Z,4.30
2023-04-07T21:16:11.062Z,4.30
2023-04-07T21:18:38.035Z,4.30
2023-04-07T21:21:05.073Z,4.30
2023-04-07T21:23:31.950Z,4.30
2023-04-07T21:26:03.054Z,4.30
2023-04-07T21:28:30.022Z,4.20
2023-04-07T21:30:57.139Z,4.20
2023-04-07T21:33:24.690Z,4.20
2023-04-07T21:35:52.153Z,4.20
2023-04-07T21:38:19.235Z,4.20
2023-04-07T21:40:46.072Z,4.20
2023-04-07T21:43:13.041Z,4.20
2023-04-07T21:45:40.064Z,4.20
2023-04-07T21:48:07.075Z,4.20
2023-04-07T21:50:34.148Z,4.20
2023-04-07T21:53:01.051Z,4.20
2023-04-07T21:55:28.241Z,4.20
2023-04-07T21:57:55.131Z,4.20
2023-04-07T22:00:22.130Z,4.20
2023-04-07T22:02:49.664Z,4.20
2023-04-07T22:05:17.015Z,4.20
2023-04-07T22:07:45.577Z,4.20
2023-04-07T22:10:13.032Z,4.10
2023-04-07T22:12:40.300Z,4.10
2023-04-07T22:15:08.654Z,4.10
2023-04-07T22:17:35.752Z,4.10
2023-04-07T22:20:02.681Z,4.10
2023-04-07T22:22:29.570Z,4.10
2023-04-07T22:24:56.455Z,4.20
2023-04-07T22:27:23.249Z,4.10
2023-04-07T22:29:50.029Z,4.10
2023-04-07T22:32:16.823Z,4.10
2023-04-07T22:34:45.683Z,4.10
2023-04-07T22:37:13.203Z,4.10
2023-04-07T22:39:40.182Z,4.10
2023-04-07T22:42:06.996Z,4.10
2023-04-07T22:44:33.721Z,4.10
2023-04-07T22:47:00.525Z,4.10
2023-04-07T22:49:28.134Z,4.10
2023-04-07T22:51:56.914Z,4.10
2023-04-07T22:54:23.763Z,4.10
2023-04-07T22:56:50.661Z,4.10
2023-04-07T22:59:17.451Z,4.10
2023-04-07T23:01:44.455Z,4.10
2023-04-07T23:04:11.248Z,4.10
2023-04-07T23:06:38.081Z,4.10
2023-04-07T23:09:04.796Z,4.10
2023-04-07T23:11:31.636Z,4.10
2023-04-07T23:13:58.390Z,4.10
2023-04-07T23:16:25.240Z,4.10
2023-04-07T23:18:52.339Z,4.10
2023-04-07T23:21:19.145Z,4.10
2023-04-07T23:23:45.844Z,4.10
2023-04-07T23:26:12.579Z,4.10
2023-04-07T23:28:39.338Z,4.10
2023-04-07T23:31:08.832Z,4.00
2023-04-07T23:33:35.629Z,4.00
2023-04-07T23:36:02.836Z,4.00
2023-04-07T23:38:29.694Z,4.00
2023-04-07T23:40:56.685Z,4.00
2023-04-07T23:43:23.529Z,4.00
2023-04-07T23:45:50.603Z,4.00
2023-04-07T23:48:17.438Z,4.00
2023-04-07T23:50:44.224Z,4.00
2023-04-07T23:53:11.083Z,4.00
2023-04-07T23:55:37.876Z,4.00
2023-04-07T23:58:04.637Z,4.00
